Time;durP1;ratioP1;P1;durP2;ratioP2;P2;SDS_P1;SDS_P2;PMS_P1;PMS_P2;Temp;Humidity;BMP_temperature;BMP_pressure;BME280_temperature;BME280_humidity;BME280_pressure;Samples;Min_cycle;Max_cycle;Signal;HPM_P1;HPM_P2
2024/04/08 00:00:19;;;;;;;6.90;2.53;;;;;;;;;;5086228;28;20189;-74
2024/04/08 00:02:46;;;;;;;4.43;2.25;;;;;;;;;;5089722;28;20219;-75
2024/04/08 00:05:11;;;;;;;4.97;2.50;;;;;;;;;;5084346;28;20291;-75
2024/04/08 00:07:37;;;;;;;4.40;2.30;;;;;;;;;;5089489;28;20196;-75
2024/04/08 00:10:03;;;;;;;6.65;2.38;;;;;;;;;;5084125;28;20223;-75
2024/04/08 00:12:29;;;;;;;4.70;2.13;;;;;;;;;;5091170;28;20202;-75
2024/04/08 00:14:55;;;;;;;5.43;2.30;;;;;;;;;;5087461;28;20192;-75
2024/04/08 00:17:20;;;;;;;7.32;3.13;;;;;;;;;;5085093;28;20177;-75
2024/04/08 00:19:46;;;;;;;8.20;3.42;;;;;;;;;;5082041;28;20226;-73
2024/04/08 00:22:12;;;;;;;7.22;3.58;;;;;;;;;;5074510;28;20206;-74
2024/04/08 00:24:37;;;;;;;5.03;3.38;;;;;;;;;;5084329;28;20706;-74
2024/04/08 00:27:03;;;;;;;8.48;4.20;;;;;;;;;;5075141;28;20265;-74
2024/04/08 00:29:28;;;;;;;7.53;4.22;;;;;;;;;;5082456;28;20294;-74
2024/04/08 00:31:54;;;;;;;9.93;3.90;;;;;;;;;;5080041;28;20279;-74
2024/04/08 00:34:19;;;;;;;7.00;3.22;;;;;;;;;;5070458;28;20280;-74
2024/04/08 00:36:45;;;;;;;6.45;2.67;;;;;;;;;;5081537;28;20199;-73
2024/04/08 00:39:10;;;;;;;7.82;2.50;;;;;;;;;;5078350;28;20221;-73
2024/04/08 00:41:35;;;;;;;7.90;2.50;;;;;;;;;;5067149;28;20627;-73
2024/04/08 00:44:01;;;;;;;5.35;2.60;;;;;;;;;;5083516;28;20193;-73
2024/04/08 00:46:28;;;;;;;9.40;2.90;;;;;;;;;;5089046;28;20674;-73
2024/04/08 00:48:55;;;;;;;6.30;3.03;;;;;;;;;;5072357;28;20681;-73
2024/04/08 00:51:22;;;;;;;4.28;2.63;;;;;;;;;;5083728;28;20548;-72
2024/04/08 00:53:49;;;;;;;8.50;2.60;;;;;;;;;;5085950;28;20192;-73
2024/04/08 00:56:17;;;;;;;6.15;2.55;;;;;;;;;;5084955;28;20290;-73
2024/04/08 00:58:43;;;;;;;6.40;2.50;;;;;;;;;;5076791;28;20189;-72
2024/04/08 01:01:10;;;;;;;6.07;2.67;;;;;;;;;;5085723;28;20677;-73
2024/04/08 01:03:36;;;;;;;6.07;2.90;;;;;;;;;;5081103;28;20211;-72
2024/04/08 01:06:02;;;;;;;7.47;3.15;;;;;;;;;;5084547;28;20180;-73
2024/04/08 01:08:27;;;;;;;8.40;2.63;;;;;;;;;;5089639;28;20299;-73
2024/04/08 01:10:55;;;;;;;5.18;2.70;;;;;;;;;;5084697;28;20587;-73
2024/04/08 01:13:20;;;;;;;6.38;2.55;;;;;;;;;;5079169;28;20185;-73
2024/04/08 01:15:46;;;;;;;5.78;2.55;;;;;;;;;;5082532;28;20677;-72
2024/04/08 01:18:11;;;;;;;5.65;2.58;;;;;;;;;;5077860;28;20250;-72
2024/04/08 01:20:37;;;;;;;8.60;2.53;;;;;;;;;;5086662;28;20188;-71
2024/04/08 01:23:03;;;;;;;7.18;2.80;;;;;;;;;;5083867;28;20649;-70
2024/04/08 01:25:29;;;;;;;5.93;2.88;;;;;;;;;;5064139;28;20235;-71
2024/04/08 01:27:54;;;;;;;9.98;2.92;;;;;;;;;;5078516;28;20595;-70
2024/04/08 01:30:21;;;;;;;7.72;3.40;;;;;;;;;;5086189;28;20262;-71
2024/04/08 01:32:46;;;;;;;6.43;3.08;;;;;;;;;;5087867;28;20236;-71
2024/04/08 01:35:12;;;;;;;9.45;3.47;;;;;;;;;;5088339;28;20185;-71
2024/04/08 01:37:37;;;;;;;7.75;3.13;;;;;;;;;;5068054;28;20241;-71
2024/04/08 01:40:03;;;;;;;8.32;3.10;;;;;;;;;;5084994;28;20227;-71
2024/04/08 01:42:29;;;;;;;5.05;2.80;;;;;;;;;;5088557;28;20789;-70
2024/04/08 01:44:54;;;;;;;8.18;3.10;;;;;;;;;;5081559;28;20496;-70
2024/04/08 01:47:20;;;;;;;7.32;3.35;;;;;;;;;;5084380;28;20274;-70
2024/04/08 01:49:45;;;;;;;8.70;3.40;;;;;;;;;;5088548;28;20211;-71
2024/04/08 01:52:11;;;;;;;4.80;3.22;;;;;;;;;;5080454;28;20188;-71
2024/04/08 01:54:36;;;;;;;8.88;3.35;;;;;;;;;;5075669;28;20216;-71
2024/04/08 01:57:02;;;;;;;7.70;3.13;;;;;;;;;;5074357;28;20726;-71
2024/04/08 01:59:27;;;;;;;8.05;3.13;;;;;;;;;;5078446;28;20556;-71
2024/04/08 02:01:53;;;;;;;9.88;3.20;;;;;;;;;;5078889;28;20176;-72
2024/04/08 02:04:18;;;;;;;8.68;3.13;;;;;;;;;;5082772;28;20196;-73
2024/04/08 02:06:44;;;;;;;4.47;2.92;;;;;;;;;;5080002;28;20293;-75
2024/04/08 02:09:09;;;;;;;6.55;3.15;;;;;;;;;;5084662;28;20215;-75
2024/04/08 02:11:35;;;;;;;8.23;3.22;;;;;;;;;;5087434;28;20180;-75
2024/04/08 02:14:00;;;;;;;9.07;3.25;;;;;;;;;;5081216;28;20192;-75
2024/04/08 02:16:26;;;;;;;9.55;3.30;;;;;;;;;;5081185;28;20188;-74
2024/04/08 02:18:51;;;;;;;5.07;3.00;;;;;;;;;;5082399;28;20223;-72
2024/04/08 02:21:16;;;;;;;4.70;3.00;;;;;;;;;;5085464;28;20190;-71
2024/04/08 02:23:42;;;;;;;9.95;3.28;;;;;;;;;;5088371;28;20196;-72
2024/04/08 02:26:07;;;;;;;8.40;2.92;;;;;;;;;;5083831;28;20671;-72
2024/04/08 02:28:33;;;;;;;7.22;3.55;;;;;;;;;;5083994;28;20200;-72
2024/04/08 02:31:04;;;;;;;9.77;2.83;;;;;;;;;;5067143;28;20242;-72
2024/04/08 02:33:30;;;;;;;8.23;3.33;;;;;;;;;;5075018;28;20192;-73
2024/04/08 02:36:05;;;;;;;9.57;3.28;;;;;;;;;;5085551;28;20628;-73
2024/04/08 02:38:32;;;;;;;8.50;3.15;;;;;;;;;;5074735;28;20231;-72
2024/04/08 02:40:58;;;;;;;6.38;3.38;;;;;;;;;;5085356;28;20318;-72
2024/04/08 02:43:23;;;;;;;6.45;3.00;;;;;;;;;;5084787;28;20615;-72
2024/04/08 02:45:49;;;;;;;4.78;2.90;;;;;;;;;;5077186;28;20591;-72
2024/04/08 02:48:15;;;;;;;10.23;3.13;;;;;;;;;;5079776;28;20184;-71
2024/04/08 02:50:41;;;;;;;5.57;3.25;;;;;;;;;;5075244;28;20279;-71
2024/04/08 02:53:07;;;;;;;7.68;3.13;;;;;;;;;;5086774;28;20179;-71
2024/04/08 02:55:33;;;;;;;6.43;3.25;;;;;;;;;;5079220;28;20237;-71
2024/04/08 02:57:58;;;;;;;8.65;3.28;;;;;;;;;;5087669;28;20244;-71
2024/04/08 03:00:24;;;;;;;10.35;3.60;;;;;;;;;;5074568;28;20259;-71
2024/04/08 03:02:49;;;;;;;7.57;3.60;;;;;;;;;;5078703;28;20607;-71
2024/04/08 03:05:15;;;;;;;9.15;3.38;;;;;;;;;;5082846;28;20199;-71
2024/04/08 03:07:40;;;;;;;6.55;3.50;;;;;;;;;;5078605;28;20196;-70
2024/04/08 03:10:06;;;;;;;5.22;3.75;;;;;;;;;;5078293;28;20312;-71
2024/04/08 03:12:31;;;;;;;7.00;3.38;;;;;;;;;;5080297;28;20257;-71
2024/04/08 03:14:57;;;;;;;6.65;3.42;;;;;;;;;;5083262;28;20254;-71
2024/04/08 03:17:23;;;;;;;9.40;3.95;;;;;;;;;;5086515;28;20267;-71
2024/04/08 03:19:55;;;;;;;6.28;3.28;;;;;;;;;;5088798;28;20304;-71
2024/04/08 03:22:21;;;;;;;6.45;3.83;;;;;;;;;;5087575;28;20534;-71
2024/04/08 03:24:46;;;;;;;9.88;3.92;;;;;;;;;;5071448;28;20275;-71
2024/04/08 03:27:12;;;;;;;7.07;3.75;;;;;;;;;;5083725;28;20257;-71
2024/04/08 03:29:38;;;;;;;14.35;4.28;;;;;;;;;;5086843;28;20547;-71
2024/04/08 03:32:03;;;;;;;12.63;3.67;;;;;;;;;;5089988;28;20249;-71
2024/04/08 03:34:31;;;;;;;10.32;4.15;;;;;;;;;;5089793;28;20603;-71
2024/04/08 03:36:57;;;;;;;7.03;3.85;;;;;;;;;;5088733;28;20535;-70
2024/04/08 03:39:23;;;;;;;8.38;4.13;;;;;;;;;;5076632;28;20295;-70
2024/04/08 03:41:50;;;;;;;10.15;4.25;;;;;;;;;;5073289;28;20201;-70
2024/04/08 03:44:15;;;;;;;9.45;3.67;;;;;;;;;;5088816;28;20184;-70
2024/04/08 03:46:41;;;;;;;8.27;3.97;;;;;;;;;;5085570;28;20184;-70
2024/04/08 03:49:06;;;;;;;5.72;3.47;;;;;;;;;;5088649;28;20211;-70
2024/04/08 03:51:32;;;;;;;8.73;4.30;;;;;;;;;;5076471;28;20180;-71
2024/04/08 03:53:57;;;;;;;6.85;3.97;;;;;;;;;;5090555;28;20196;-71
2024/04/08 03:56:22;;;;;;;9.23;4.20;;;;;;;;;;5084040;28;20281;-71
2024/04/08 03:58:48;;;;;;;11.88;4.28;;;;;;;;;;5088854;28;20188;-72
2024/04/08 04:01:13;;;;;;;6.82;3.85;;;;;;;;;;5087230;28;20648;-71
2024/04/08 04:03:39;;;;;;;7.50;4.38;;;;;;;;;;5089210;28;20521;-71
2024/04/08 04:06:05;;;;;;;7.07;5.00;;;;;;;;;;5082750;28;20199;-71
2024/04/08 04:08:30;;;;;;;12.18;6.65;;;;;;;;;;5089241;28;20301;-71
2024/04/08 04:10:56;;;;;;;10.77;5.82;;;;;;;;;;5078391;28;20234;-71
2024/04/08 04:13:22;;;;;;;13.10;5.20;;;;;;;;;;5080151;28;20248;-71
2024/04/08 04:15:47;;;;;;;9.40;4.47;;;;;;;;;;5085663;28;20279;-71
2024/04/08 04:18:13;;;;;;;9.15;4.60;;;;;;;;;;5084625;28;20505;-71
2024/04/08 04:20:40;;;;;;;8.50;4.57;;;;;;;;;;5070358;28;20181;-71
2024/04/08 04:23:06;;;;;;;7.38;4.47;;;;;;;;;;5079088;28;20191;-71
2024/04/08 04:25:32;;;;;;;6.85;4.50;;;;;;;;;;5083128;28;20180;-71
2024/04/08 04:27:59;;;;;;;11.38;4.60;;;;;;;;;;5086345;28;20185;-71
2024/04/08 04:30:26;;;;;;;10.27;4.47;;;;;;;;;;5078944;28;20219;-71
2024/04/08 04:32:51;;;;;;;9.93;5.72;;;;;;;;;;5089112;28;20346;-71
2024/04/08 04:35:17;;;;;;;9.88;5.55;;;;;;;;;;5076420;28;20632;-71
2024/04/08 04:37:42;;;;;;;11.43;6.38;;;;;;;;;;5087966;28;20651;-71
2024/04/08 04:40:08;;;;;;;10.27;6.45;;;;;;;;;;5090133;28;20184;-71
2024/04/08 04:42:34;;;;;;;11.48;6.13;;;;;;;;;;5088914;28;20314;-71
2024/04/08 04:45:00;;;;;;;8.95;5.80;;;;;;;;;;5085469;28;20606;-71
2024/04/08 04:47:25;;;;;;;11.27;6.40;;;;;;;;;;5076860;28;20648;-71
2024/04/08 04:49:50;;;;;;;13.00;6.80;;;;;;;;;;5083002;28;20216;-71
2024/04/08 04:52:16;;;;;;;10.63;5.88;;;;;;;;;;5079663;28;20293;-71
2024/04/08 04:54:41;;;;;;;12.10;6.55;;;;;;;;;;5073300;28;20201;-70
2024/04/08 04:57:07;;;;;;;12.30;5.65;;;;;;;;;;5089294;28;20716;-70
2024/04/08 04:59:33;;;;;;;10.15;6.50;;;;;;;;;;5078307;28;20605;-70
2024/04/08 05:01:58;;;;;;;12.40;6.30;;;;;;;;;;5081794;28;20648;-70
2024/04/08 05:04:23;;;;;;;10.02;6.03;;;;;;;;;;5075393;28;20196;-70
2024/04/08 05:06:49;;;;;;;11.32;6.00;;;;;;;;;;5081906;28;20192;-71
2024/04/08 05:09:14;;;;;;;13.05;6.43;;;;;;;;;;5074776;28;20210;-70
2024/04/08 05:11:40;;;;;;;9.98;5.82;;;;;;;;;;5072222;28;20181;-71
2024/04/08 05:14:05;;;;;;;13.52;6.30;;;;;;;;;;5075111;28;20189;-71
2024/04/08 05:16:31;;;;;;;10.13;5.90;;;;;;;;;;5085523;28;20232;-71
2024/04/08 05:18:57;;;;;;;10.52;6.35;;;;;;;;;;5081646;28;20204;-70
2024/04/08 05:21:22;;;;;;;13.07;6.53;;;;;;;;;;5080757;28;20184;-70
2024/04/08 05:23:51;;;;;;;11.20;6.07;;;;;;;;;;5080386;28;20537;-70
2024/04/08 05:26:17;;;;;;;11.10;6.32;;;;;;;;;;5087146;28;20263;-70
2024/04/08 05:28:42;;;;;;;10.15;6.60;;;;;;;;;;5075201;28;20295;-70
2024/04/08 05:31:08;;;;;;;11.00;6.07;;;;;;;;;;5080896;28;20318;-71
2024/04/08 05:33:34;;;;;;;8.07;5.80;;;;;;;;;;5081229;28;20192;-70
2024/04/08 05:35:59;;;;;;;14.13;6.05;;;;;;;;;;5078945;28;20185;-70
2024/04/08 05:38:25;;;;;;;10.88;6.55;;;;;;;;;;5083946;28;20258;-70
2024/04/08 05:40:51;;;;;;;8.60;6.53;;;;;;;;;;5086862;28;20187;-70
2024/04/08 05:43:16;;;;;;;10.35;5.72;;;;;;;;;;5080822;28;20484;-70
2024/04/08 05:45:42;;;;;;;14.18;6.43;;;;;;;;;;5081131;28;20250;-69
2024/04/08 05:48:08;;;;;;;9.15;5.97;;;;;;;;;;5072798;28;20195;-69
2024/04/08 05:50:33;;;;;;;11.25;6.70;;;;;;;;;;5081342;28;20218;-70
2024/04/08 05:53:00;;;;;;;11.30;6.97;;;;;;;;;;5085256;28;20245;-71
2024/04/08 05:55:27;;;;;;;14.23;6.85;;;;;;;;;;5085483;28;20187;-71
2024/04/08 05:57:53;;;;;;;10.93;6.70;;;;;;;;;;5074891;28;20704;-70
2024/04/08 06:00:19;;;;;;;16.63;6.50;;;;;;;;;;5085913;28;20188;-70
2024/04/08 06:02:49;;;;;;;13.10;6.43;;;;;;;;;;5087795;28;20219;-70
2024/04/08 06:05:19;;;;;;;10.25;6.68;;;;;;;;;;5083945;28;20192;-71
2024/04/08 06:07:48;;;;;;;10.70;6.93;;;;;;;;;;5083122;28;20595;-70
2024/04/08 06:10:17;;;;;;;10.65;6.45;;;;;;;;;;5084586;28;20723;-70
2024/04/08 06:12:43;;;;;;;9.27;6.45;;;;;;;;;;5080620;28;20200;-71
2024/04/08 06:15:08;;;;;;;14.05;7.25;;;;;;;;;;5071477;28;20525;-70
2024/04/08 06:17:34;;;;;;;11.93;6.68;;;;;;;;;;5078045;28;20184;-70
2024/04/08 06:20:01;;;;;;;9.75;6.65;;;;;;;;;;5080868;28;20640;-71
2024/04/08 06:22:27;;;;;;;12.40;7.25;;;;;;;;;;5078984;28;20184;-71
2024/04/08 06:24:52;;;;;;;12.95;7.32;;;;;;;;;;5084573;28;20193;-71
2024/04/08 06:27:18;;;;;;;13.07;7.18;;;;;;;;;;5087262;28;20198;-70
2024/04/08 06:29:43;;;;;;;9.55;6.97;;;;;;;;;;5078203;28;20226;-71
2024/04/08 06:32:08;;;;;;;9.68;6.40;;;;;;;;;;5070127;28;20196;-71
2024/04/08 06:34:34;;;;;;;8.07;5.95;;;;;;;;;;5076304;28;20265;-71
2024/04/08 06:37:01;;;;;;;9.07;6.35;;;;;;;;;;5075775;28;20275;-71
2024/04/08 06:39:27;;;;;;;10.48;6.72;;;;;;;;;;5086960;28;20251;-71
2024/04/08 06:41:53;;;;;;;10.65;5.63;;;;;;;;;;5077542;28;20227;-71
2024/04/08 06:44:18;;;;;;;9.15;5.00;;;;;;;;;;5085016;28;20539;-71
2024/04/08 06:46:44;;;;;;;7.10;4.93;;;;;;;;;;5084767;28;20188;-70
2024/04/08 06:49:09;;;;;;;7.35;4.55;;;;;;;;;;5085691;28;20235;-70
2024/04/08 06:51:35;;;;;;;10.07;4.60;;;;;;;;;;5084191;28;20587;-70
2024/04/08 06:54:01;;;;;;;7.95;5.22;;;;;;;;;;5090922;28;20187;-70
2024/04/08 06:56:26;;;;;;;10.05;5.38;;;;;;;;;;5084183;28;20187;-70
2024/04/08 06:58:52;;;;;;;7.75;4.70;;;;;;;;;;5085502;28;20196;-70
2024/04/08 07:01:20;;;;;;;9.20;4.78;;;;;;;;;;5085965;28;20191;-70
2024/04/08 07:03:46;;;;;;;9.70;5.07;;;;;;;;;;5089383;28;20183;-71
2024/04/08 07:06:11;;;;;;;9.85;5.22;;;;;;;;;;5087987;28;20188;-70
2024/04/08 07:08:37;;;;;;;9.73;4.95;;;;;;;;;;5093353;28;20183;-70
2024/04/08 07:11:03;;;;;;;11.57;4.82;;;;;;;;;;5088156;28;20193;-71
2024/04/08 07:13:29;;;;;;;10.27;5.30;;;;;;;;;;5090944;28;20247;-71
2024/04/08 07:15:55;;;;;;;9.20;4.88;;;;;;;;;;5091595;28;20196;-71
2024/04/08 07:18:21;;;;;;;10.15;5.15;;;;;;;;;;5087546;28;20549;-71
2024/04/08 07:20:47;;;;;;;8.52;4.40;;;;;;;;;;5089302;28;20180;-71
2024/04/08 07:23:12;;;;;;;9.73;5.55;;;;;;;;;;5086247;28;20199;-70
2024/04/08 07:25:37;;;;;;;7.05;4.50;;;;;;;;;;5079643;28;20194;-70
2024/04/08 07:28:03;;;;;;;9.95;4.43;;;;;;;;;;5081424;28;20314;-71
2024/04/08 07:30:29;;;;;;;6.43;4.50;;;;;;;;;;5088575;28;20212;-71
2024/04/08 07:32:55;;;;;;;9.55;4.30;;;;;;;;;;5086473;28;20216;-70
2024/04/08 07:35:21;;;;;;;9.35;4.32;;;;;;;;;;5088659;28;20267;-71
2024/04/08 07:37:47;;;;;;;7.85;4.38;;;;;;;;;;5084396;28;20526;-71
2024/04/08 07:40:12;;;;;;;8.02;4.20;;;;;;;;;;5091148;28;20241;-70
2024/04/08 07:42:39;;;;;;;8.45;4.22;;;;;;;;;;5089149;28;20326;-70
2024/04/08 07:45:05;;;;;;;9.43;3.85;;;;;;;;;;5091977;28;20187;-71
2024/04/08 07:47:30;;;;;;;7.22;4.13;;;;;;;;;;5097033;28;20198;-70
2024/04/08 07:49:57;;;;;;;7.63;3.72;;;;;;;;;;5089879;28;20643;-71
2024/04/08 07:52:23;;;;;;;9.27;4.03;;;;;;;;;;5089456;28;20515;-71
2024/04/08 07:54:48;;;;;;;5.65;3.17;;;;;;;;;;5088592;28;20192;-70
2024/04/08 07:57:14;;;;;;;5.40;2.88;;;;;;;;;;5093377;28;20588;-70
2024/04/08 07:59:39;;;;;;;5.60;3.30;;;;;;;;;;5089219;28;20540;-70
2024/04/08 08:02:05;;;;;;;8.32;3.50;;;;;;;;;;5092803;28;20241;-71
2024/04/08 08:04:31;;;;;;;5.43;3.63;;;;;;;;;;5090252;28;20188;-71
2024/04/08 08:06:56;;;;;;;4.93;3.45;;;;;;;;;;5088787;28;20219;-71
2024/04/08 08:09:22;;;;;;;8.52;3.33;;;;;;;;;;5089285;28;20251;-70
2024/04/08 08:11:47;;;;;;;7.53;3.05;;;;;;;;;;5079136;28;20180;-70
2024/04/08 08:14:13;;;;;;;4.53;2.83;;;;;;;;;;5082013;28;20262;-70
2024/04/08 08:16:38;;;;;;;6.85;2.63;;;;;;;;;;5089053;28;20257;-70
2024/04/08 08:19:04;;;;;;;4.13;3.20;;;;;;;;;;5083834;28;20254;-70
2024/04/08 08:21:29;;;;;;;6.63;3.08;;;;;;;;;;5078824;28;20404;-70
2024/04/08 08:23:57;;;;;;;8.85;2.92;;;;;;;;;;5080344;28;20562;-70
2024/04/08 08:26:22;;;;;;;4.18;2.83;;;;;;;;;;5081167;28;20188;-71
2024/04/08 08:28:48;;;;;;;4.82;3.05;;;;;;;;;;5088564;28;20311;-70
2024/04/08 08:31:13;;;;;;;6.72;3.10;;;;;;;;;;5076866;28;20560;-70
2024/04/08 08:33:39;;;;;;;4.38;2.90;;;;;;;;;;5086865;28;20194;-70
2024/04/08 08:36:05;;;;;;;5.57;2.83;;;;;;;;;;5063988;28;20196;-70
2024/04/08 08:38:33;;;;;;;5.45;2.97;;;;;;;;;;5079343;28;20217;-71
2024/04/08 08:41:06;;;;;;;4.95;3.00;;;;;;;;;;5088644;28;20200;-71
2024/04/08 08:43:32;;;;;;;5.85;3.20;;;;;;;;;;5075200;28;20188;-71
2024/04/08 08:45:58;;;;;;;4.38;2.60;;;;;;;;;;5085068;28;20681;-71
2024/04/08 08:48:24;;;;;;;5.15;2.53;;;;;;;;;;5077361;28;20179;-71
2024/04/08 08:50:50;;;;;;;3.90;2.83;;;;;;;;;;5083816;28;20273;-71
2024/04/08 08:53:16;;;;;;;5.10;3.08;;;;;;;;;;5089413;28;20188;-71
2024/04/08 08:55:44;;;;;;;5.15;2.63;;;;;;;;;;5087444;28;20627;-71
2024/04/08 08:58:10;;;;;;;5.25;2.85;;;;;;;;;;5083481;28;20263;-71
2024/04/08 09:00:40;;;;;;;5.38;2.70;;;;;;;;;;5076328;28;20211;-72
2024/04/08 09:03:16;;;;;;;7.75;3.30;;;;;;;;;;5085945;28;20191;-72
2024/04/08 09:05:42;;;;;;;6.30;2.95;;;;;;;;;;5079283;28;20204;-71
2024/04/08 09:08:08;;;;;;;5.10;2.83;;;;;;;;;;5072816;28;20197;-71
2024/04/08 09:10:44;;;;;;;4.53;2.85;;;;;;;;;;5086055;28;20793;-72
2024/04/08 09:13:22;;;;;;;3.42;2.20;;;;;;;;;;5064323;28;20289;-71
2024/04/08 09:15:49;;;;;;;6.50;2.63;;;;;;;;;;5083034;28;20202;-71
2024/04/08 09:18:18;;;;;;;4.93;2.45;;;;;;;;;;5071910;28;20230;-71
2024/04/08 09:20:44;;;;;;;5.47;2.38;;;;;;;;;;5077412;28;20659;-71
2024/04/08 09:23:11;;;;;;;3.00;2.00;;;;;;;;;;5075306;28;20188;-71
2024/04/08 09:25:37;;;;;;;7.60;2.25;;;;;;;;;;5079650;28;20184;-71
2024/04/08 09:28:02;;;;;;;4.75;2.35;;;;;;;;;;5081190;28;20181;-71
2024/04/08 09:30:28;;;;;;;3.20;2.03;;;;;;;;;;5076248;28;20296;-71
2024/04/08 09:32:57;;;;;;;4.32;2.28;;;;;;;;;;5077346;28;20306;-71
2024/04/08 09:35:24;;;;;;;9.35;2.67;;;;;;;;;;5080275;28;20173;-71
2024/04/08 09:37:52;;;;;;;7.20;2.67;;;;;;;;;;5077234;28;20192;-71
2024/04/08 09:40:20;;;;;;;3.13;1.90;;;;;;;;;;5088916;28;20608;-71
2024/04/08 09:42:46;;;;;;;5.72;2.58;;;;;;;;;;5078702;28;20184;-71
2024/04/08 09:45:15;;;;;;;7.50;2.60;;;;;;;;;;5078918;28;20190;-71
2024/04/08 09:47:41;;;;;;;5.03;2.70;;;;;;;;;;5078319;28;20189;-71
2024/04/08 09:50:11;;;;;;;6.22;2.20;;;;;;;;;;5088344;28;20208;-71
2024/04/08 09:52:40;;;;;;;3.92;2.30;;;;;;;;;;5087135;28;20640;-70
2024/04/08 09:55:09;;;;;;;3.88;2.03;;;;;;;;;;5087012;28;20188;-71
2024/04/08 09:57:39;;;;;;;7.40;2.00;;;;;;;;;;5083868;28;20184;-71
2024/04/08 10:00:12;;;;;;;4.47;2.08;;;;;;;;;;5077995;28;20180;-72
2024/04/08 10:02:39;;;;;;;3.15;1.73;;;;;;;;;;5086077;28;20188;-71
2024/04/08 10:05:05;;;;;;;4.20;1.90;;;;;;;;;;5078124;28;20621;-71
2024/04/08 10:07:32;;;;;;;3.05;1.60;;;;;;;;;;5087606;28;20663;-72
2024/04/08 10:10:01;;;;;;;3.92;1.90;;;;;;;;;;5082982;28;20706;-71
2024/04/08 10:12:34;;;;;;;2.00;1.55;;;;;;;;;;5085934;28;20191;-71
2024/04/08 10:15:09;;;;;;;3.85;1.60;;;;;;;;;;5083588;28;20194;-71
2024/04/08 10:17:36;;;;;;;3.58;1.95;;;;;;;;;;5085789;28;20456;-71
2024/04/08 10:20:05;;;;;;;5.18;2.00;;;;;;;;;;5086207;28;20462;-71
2024/04/08 10:22:33;;;;;;;4.38;1.60;;;;;;;;;;5083264;28;20256;-71
2024/04/08 10:24:58;;;;;;;5.20;2.47;;;;;;;;;;5086788;28;20207;-71
2024/04/08 10:27:26;;;;;;;5.97;2.28;;;;;;;;;;5083901;28;20528;-71
2024/04/08 10:29:59;;;;;;;7.28;2.30;;;;;;;;;;5083613;28;20212;-71
2024/04/08 10:32:25;;;;;;;2.80;1.65;;;;;;;;;;5080717;28;20214;-71
2024/04/08 10:34:54;;;;;;;3.83;1.95;;;;;;;;;;5080300;28;20189;-72
2024/04/08 10:37:19;;;;;;;6.07;2.03;;;;;;;;;;5072579;28;20670;-72
2024/04/08 10:39:44;;;;;;;3.03;1.50;;;;;;;;;;5076649;28;20229;-71
2024/04/08 10:42:15;;;;;;;5.22;2.08;;;;;;;;;;5073579;28;20192;-71
2024/04/08 10:44:41;;;;;;;2.50;1.52;;;;;;;;;;5079666;28;20551;-71
2024/04/08 10:47:08;;;;;;;3.78;1.40;;;;;;;;;;5085018;28;20271;-71
2024/04/08 10:49:40;;;;;;;7.13;2.20;;;;;;;;;;5081207;28;20257;-71
2024/04/08 10:52:05;;;;;;;3.17;1.58;;;;;;;;;;5082522;28;20203;-71
2024/04/08 10:54:32;;;;;;;4.20;1.67;;;;;;;;;;5080323;28;20499;-71
2024/04/08 10:56:58;;;;;;;4.72;2.15;;;;;;;;;;5073199;28;20647;-70
2024/04/08 10:59:24;;;;;;;4.47;1.95;;;;;;;;;;5083757;28;20511;-71
2024/04/08 11:01:49;;;;;;;4.70;1.73;;;;;;;;;;5083326;28;20211;-70
2024/04/08 11:04:17;;;;;;;6.72;1.77;;;;;;;;;;5082230;28;20181;-70
2024/04/08 11:06:43;;;;;;;6.22;1.98;;;;;;;;;;5084091;28;20199;-71
2024/04/08 11:09:08;;;;;;;8.10;1.70;;;;;;;;;;5082161;28;20208;-71
2024/04/08 11:11:34;;;;;;;3.72;1.55;;;;;;;;;;5085073;28;20192;-71
2024/04/08 11:14:00;;;;;;;5.90;1.58;;;;;;;;;;5085020;28;20535;-71
2024/04/08 11:16:29;;;;;;;3.08;1.50;;;;;;;;;;5087688;28;20295;-71
2024/04/08 11:18:54;;;;;;;3.97;1.83;;;;;;;;;;5080658;28;20219;-71
2024/04/08 11:21:20;;;;;;;4.72;1.92;;;;;;;;;;5080316;28;20192;-71
2024/04/08 11:23:46;;;;;;;5.00;1.80;;;;;;;;;;5081469;28;20739;-70
2024/04/08 11:26:11;;;;;;;6.80;1.98;;;;;;;;;;5085841;28;20275;-71
2024/04/08 11:28:37;;;;;;;3.75;1.48;;;;;;;;;;5087729;28;20200;-71
2024/04/08 11:31:06;;;;;;;3.60;1.45;;;;;;;;;;5081048;28;20199;-71
2024/04/08 11:33:31;;;;;;;4.80;1.55;;;;;;;;;;5079299;28;20212;-70
2024/04/08 11:35:57;;;;;;;4.57;1.45;;;;;;;;;;5070376;28;20222;-70
2024/04/08 11:38:22;;;;;;;3.45;1.40;;;;;;;;;;5074918;28;20757;-70
2024/04/08 11:40:48;;;;;;;3.45;1.25;;;;;;;;;;5084169;28;20220;-71
2024/04/08 11:43:14;;;;;;;4.28;1.38;;;;;;;;;;5086005;28;20191;-71
2024/04/08 11:45:40;;;;;;;2.95;1.33;;;;;;;;;;5086949;28;20188;-71
2024/04/08 11:48:06;;;;;;;5.55;1.58;;;;;;;;;;5075525;28;20196;-70
2024/04/08 11:50:31;;;;;;;6.18;1.50;;;;;;;;;;5090361;28;20227;-71
2024/04/08 11:52:56;;;;;;;3.90;1.42;;;;;;;;;;5081605;28;20203;-71
2024/04/08 11:55:22;;;;;;;3.47;1.35;;;;;;;;;;5082106;28;20258;-71
2024/04/08 11:57:47;;;;;;;3.13;1.40;;;;;;;;;;5072996;28;20184;-71
2024/04/08 12:00:18;;;;;;;2.80;1.35;;;;;;;;;;5087379;28;20271;-71
2024/04/08 12:02:43;;;;;;;3.42;1.00;;;;;;;;;;5081924;28;20199;-70
2024/04/08 12:05:08;;;;;;;2.35;1.00;;;;;;;;;;5081375;28;20196;-70
2024/04/08 12:07:34;;;;;;;2.53;1.00;;;;;;;;;;5077409;28;20184;-70
2024/04/08 12:09:59;;;;;;;3.45;1.13;;;;;;;;;;5090211;28;20265;-70
2024/04/08 12:12:25;;;;;;;5.18;1.25;;;;;;;;;;5089092;28;20233;-70
2024/04/08 12:14:50;;;;;;;4.88;1.23;;;;;;;;;;5089995;28;20528;-70
2024/04/08 12:17:17;;;;;;;2.53;1.33;;;;;;;;;;5074297;28;20192;-70
2024/04/08 12:19:43;;;;;;;4.20;1.60;;;;;;;;;;5080743;28;20283;-71
2024/04/08 12:22:08;;;;;;;4.20;1.33;;;;;;;;;;5080422;28;20310;-70
2024/04/08 12:24:34;;;;;;;2.60;1.10;;;;;;;;;;5079301;28;20616;-70
2024/04/08 12:26:59;;;;;;;4.10;1.40;;;;;;;;;;5073897;28;20257;-70
2024/04/08 12:29:25;;;;;;;4.18;1.60;;;;;;;;;;5086921;28;20200;-70
2024/04/08 12:31:50;;;;;;;2.78;1.40;;;;;;;;;;5082633;28;20192;-70
2024/04/08 12:34:15;;;;;;;5.18;1.63;;;;;;;;;;5081938;28;20195;-70
2024/04/08 12:36:41;;;;;;;1.92;1.45;;;;;;;;;;5084617;28;20215;-70
2024/04/08 12:39:06;;;;;;;5.70;1.90;;;;;;;;;;5073529;28;20237;-70
2024/04/08 12:43:09;;;;;;;5.30;1.48;;;;;;;;;;5457106;26;21277;-70
2024/04/08 12:45:34;;;;;;;4.15;1.63;;;;;;;;;;5425230;26;20250;-70
2024/04/08 12:48:00;;;;;;;2.75;1.27;;;;;;;;;;5424695;26;20580;-69
2024/04/08 12:50:26;;;;;;;4.20;1.77;;;;;;;;;;5427127;26;20246;-70
2024/04/08 12:52:51;;;;;;;6.15;1.65;;;;;;;;;;5426209;26;20238;-70
2024/04/08 12:55:17;;;;;;;4.85;1.48;;;;;;;;;;5427615;26;20686;-70
2024/04/08 12:57:42;;;;;;;4.03;1.60;;;;;;;;;;5425291;26;20242;-70
2024/04/08 13:00:11;;;;;;;6.00;1.90;;;;;;;;;;5427714;26;20238;-70
2024/04/08 13:02:37;;;;;;;5.43;1.88;;;;;;;;;;5418672;26;20322;-70
2024/04/08 13:05:03;;;;;;;4.25;1.67;;;;;;;;;;5417291;26;20259;-71
2024/04/08 13:07:29;;;;;;;3.75;1.33;;;;;;;;;;5388282;26;20247;-71
2024/04/08 13:09:54;;;;;;;7.20;2.28;;;;;;;;;;5410813;26;20265;-71
2024/04/08 13:12:20;;;;;;;6.18;1.65;;;;;;;;;;5424724;26;20323;-71
2024/04/08 13:14:46;;;;;;;5.28;2.05;;;;;;;;;;5426791;26;20289;-71
2024/04/08 13:17:12;;;;;;;6.22;2.03;;;;;;;;;;5427862;26;20230;-71
2024/04/08 13:19:38;;;;;;;6.35;1.90;;;;;;;;;;5413006;26;20347;-71
2024/04/08 13:22:04;;;;;;;5.95;2.10;;;;;;;;;;5420774;26;20270;-71
2024/04/08 13:24:30;;;;;;;4.03;1.90;;;;;;;;;;5423738;26;20238;-71
2024/04/08 13:26:55;;;;;;;6.45;1.90;;;;;;;;;;5423548;26;20711;-71
2024/04/08 13:29:21;;;;;;;4.90;1.90;;;;;;;;;;5422699;26;20269;-71
2024/04/08 13:31:46;;;;;;;4.07;1.65;;;;;;;;;;5410348;26;20241;-71
2024/04/08 13:34:12;;;;;;;5.38;2.38;;;;;;;;;;5424935;26;20250;-71
2024/04/08 13:36:38;;;;;;;6.78;2.72;;;;;;;;;;5409533;26;20281;-71
2024/04/08 13:39:03;;;;;;;7.22;2.50;;;;;;;;;;5415617;26;20234;-71
2024/04/08 13:41:29;;;;;;;3.55;2.15;;;;;;;;;;5414854;26;20766;-71
2024/04/08 13:43:55;;;;;;;8.32;2.30;;;;;;;;;;5405757;26;20234;-70
2024/04/08 13:46:20;;;;;;;5.82;2.72;;;;;;;;;;5406707;26;20243;-71
2024/04/08 13:48:46;;;;;;;10.05;2.63;;;;;;;;;;5380913;26;20326;-70
2024/04/08 13:51:11;;;;;;;7.53;3.03;;;;;;;;;;5419362;26;20230;-70
2024/04/08 13:53:37;;;;;;;6.03;2.92;;;;;;;;;;5409875;26;20333;-71
2024/04/08 13:56:03;;;;;;;4.85;2.75;;;;;;;;;;5389161;26;20252;-71
2024/04/08 13:58:29;;;;;;;5.78;2.75;;;;;;;;;;5392750;26;20793;-71
2024/04/08 14:00:56;;;;;;;8.30;2.72;;;;;;;;;;5399066;26;20746;-71
2024/04/08 14:03:21;;;;;;;6.00;2.30;;;;;;;;;;5387295;26;20248;-71
2024/04/08 14:05:48;;;;;;;5.50;2.72;;;;;;;;;;5394074;26;20231;-71
2024/04/08 14:08:14;;;;;;;6.03;2.95;;;;;;;;;;5406723;26;20235;-71
2024/04/08 14:10:39;;;;;;;5.85;2.80;;;;;;;;;;5391612;26;20725;-71
2024/04/08 14:13:06;;;;;;;5.88;2.78;;;;;;;;;;5390787;26;20803;-71
2024/04/08 14:15:32;;;;;;;4.13;2.90;;;;;;;;;;5397654;26;20235;-71
2024/04/08 14:17:57;;;;;;;6.60;2.92;;;;;;;;;;5389585;26;20316;-71
2024/04/08 14:20:23;;;;;;;7.25;2.97;;;;;;;;;;5402053;26;20323;-71
2024/04/08 14:22:48;;;;;;;8.10;3.35;;;;;;;;;;5405131;26;20234;-72
2024/04/08 14:25:13;;;;;;;8.75;3.00;;;;;;;;;;5369915;26;20239;-72
2024/04/08 14:27:39;;;;;;;10.48;3.00;;;;;;;;;;5387767;26;20790;-72
2024/04/08 14:30:05;;;;;;;10.02;4.00;;;;;;;;;;5396737;26;20239;-71
2024/04/08 14:32:30;;;;;;;7.15;3.15;;;;;;;;;;5388214;26;20230;-71
2024/04/08 14:34:56;;;;;;;5.78;3.40;;;;;;;;;;5397356;26;20629;-72